sensor_id;sensor_type;location;lat;lon;timestamp;pressure;altitude;pressure_sealevel;temperature;humidity
6343;BME280;3204;42.698;23.298;2023-03-25T00:01:41;94640.66;;;10.90;68.96
6343;BME280;3204;42.698;23.298;2023-03-25T00:04:06;94642.72;;;10.93;68.54
6343;BME280;3204;42.698;23.298;2023-03-25T00:06:33;94645.44;;;10.93;68.10
6343;BME280;3204;42.698;23.298;2023-03-25T00:08:59;94640.00;;;10.93;68.17
6343;BME280;3204;42.698;23.298;2023-03-25T00:11:26;94635.38;;;10.85;68.63
6343;BME280;3204;42.698;23.298;2023-03-25T00:13:52;94626.44;;;10.93;68.21
6343;BME280;3204;42.698;23.298;2023-03-25T00:16:18;94628.38;;;10.92;68.65
6343;BME280;3204;42.698;23.298;2023-03-25T00:18:44;94623.72;;;10.84;68.61
6343;BME280;3204;42.698;23.298;2023-03-25T00:21:12;94633.44;;;10.85;68.39
6343;BME280;3204;42.698;23.298;2023-03-25T00:23:38;94626.59;;;10.71;69.21
6343;BME280;3204;42.698;23.298;2023-03-25T00:26:05;94616.38;;;10.68;69.46
6343;BME280;3204;42.698;23.298;2023-03-25T00:28:33;94619.72;;;10.65;70.05
6343;BME280;3204;42.698;23.298;2023-03-25T00:31:04;94613.66;;;10.68;69.87
6343;BME280;3204;42.698;23.298;2023-03-25T00:33:30;94605.19;;;10.69;70.39
6343;BME280;3204;42.698;23.298;2023-03-25T00:35:56;94610.44;;;10.57;70.12
6343;BME280;3204;42.698;23.298;2023-03-25T00:38:28;94625.63;;;10.67;70.53
6343;BME280;3204;42.698;23.298;2023-03-25T00:41:16;94616.81;;;10.53;70.65
6343;BME280;3204;42.698;23.298;2023-03-25T00:43:43;94616.81;;;10.53;71.03
6343;BME280;3204;42.698;23.298;2023-03-25T00:46:08;94608.69;;;10.53;70.95
6343;BME280;3204;42.698;23.298;2023-03-25T00:48:34;94606.44;;;10.46;70.84
6343;BME280;3204;42.698;23.298;2023-03-25T00:51:00;94598.47;;;10.50;70.96
6343;BME280;3204;42.698;23.298;2023-03-25T00:53:34;94599.13;;;10.47;71.08
6343;BME280;3204;42.698;23.298;2023-03-25T00:55:59;94596.06;;;10.40;71.53
6343;BME280;3204;42.698;23.298;2023-03-25T00:58:25;94601.31;;;10.45;71.00
6343;BME280;3204;42.698;23.298;2023-03-25T01:00:51;94598.59;;;10.36;71.60
6343;BME280;3204;42.698;23.298;2023-03-25T01:03:17;94597.63;;;10.32;71.67
6343;BME280;3204;42.698;23.298;2023-03-25T01:05:42;94595.75;;;10.41;71.01
6343;BME280;3204;42.698;23.298;2023-03-25T01:08:08;94595.44;;;10.34;71.02
6343;BME280;3204;42.698;23.298;2023-03-25T01:10:35;94595.06;;;10.27;71.69
6343;BME280;3204;42.698;23.298;2023-03-25T01:13:01;94583.56;;;10.22;71.48
6343;BME280;3204;42.698;23.298;2023-03-25T01:15:27;94588.69;;;10.23;72.15
6343;BME280;3204;42.698;23.298;2023-03-25T01:17:52;94586.78;;;10.32;71.28
6343;BME280;3204;42.698;23.298;2023-03-25T01:20:18;94586.16;;;10.27;71.28
6343;BME280;3204;42.698;23.298;2023-03-25T01:22:43;94577.69;;;10.20;71.55
6343;BME280;3204;42.698;23.298;2023-03-25T01:25:08;94575.44;;;10.22;71.51
6343;BME280;3204;42.698;23.298;2023-03-25T01:27:34;94560.63;;;10.19;72.08
6343;BME280;3204;42.698;23.298;2023-03-25T01:30:00;94556.00;;;10.11;71.72
6343;BME280;3204;42.698;23.298;2023-03-25T01:32:27;94553.91;;;10.08;71.92
6343;BME280;3204;42.698;23.298;2023-03-25T01:34:53;94551.84;;;10.14;72.02
6343;BME280;3204;42.698;23.298;2023-03-25T01:37:18;94558.53;;;10.08;72.54
6343;BME280;3204;42.698;23.298;2023-03-25T01:39:44;94556.13;;;10.06;72.20
6343;BME280;3204;42.698;23.298;2023-03-25T01:42:10;94555.63;;;10.04;72.87
6343;BME280;3204;42.698;23.298;2023-03-25T01:47:02;94545.47;;;10.10;72.71
6343;BME280;3204;42.698;23.298;2023-03-25T01:49:33;94545.00;;;10.16;71.83
6343;BME280;3204;42.698;23.298;2023-03-25T01:52:23;94551.69;;;10.10;71.92
6343;BME280;3204;42.698;23.298;2023-03-25T01:54:52;94551.19;;;10.08;72.54
6343;BME280;3204;42.698;23.298;2023-03-25T01:57:20;94553.34;;;9.98;72.83
6343;BME280;3204;42.698;23.298;2023-03-25T01:59:49;94555.44;;;10.01;72.29
6343;BME280;3204;42.698;23.298;2023-03-25T02:02:16;94541.75;;;9.97;72.52
6343;BME280;3204;42.698;23.298;2023-03-25T02:04:59;94545.22;;;9.89;72.92
6343;BME280;3204;42.698;23.298;2023-03-25T02:07:32;94545.22;;;9.89;73.07
6343;BME280;3204;42.698;23.298;2023-03-25T02:10:02;94540.75;;;9.93;72.95
6343;BME280;3204;42.698;23.298;2023-03-25T02:12:29;94541.88;;;9.92;72.46
6343;BME280;3204;42.698;23.298;2023-03-25T02:14:55;94529.25;;;9.88;72.53
6343;BME280;3204;42.698;23.298;2023-03-25T02:26:16;94525.72;;;9.79;72.67
6343;BME280;3204;42.698;23.298;2023-03-25T02:34:09;94521.41;;;9.61;73.81
6343;BME280;3204;42.698;23.298;2023-03-25T02:40:02;94527.91;;;9.60;73.75
6343;BME280;3204;42.698;23.298;2023-03-25T02:42:39;94525.97;;;9.52;74.43
6343;BME280;3204;42.698;23.298;2023-03-25T02:45:29;94525.19;;;9.60;73.71
6343;BME280;3204;42.698;23.298;2023-03-25T02:48:06;94519.81;;;9.68;72.84
6343;BME280;3204;42.698;23.298;2023-03-25T02:50:44;94527.91;;;9.60;73.36
6343;BME280;3204;42.698;23.298;2023-03-25T02:53:14;94528.22;;;9.58;73.63
6343;BME280;3204;42.698;23.298;2023-03-25T02:55:42;94523.59;;;9.59;73.38
6343;BME280;3204;42.698;23.298;2023-03-25T02:58:12;94524.69;;;9.49;73.73
6343;BME280;3204;42.698;23.298;2023-03-25T03:00:41;94514.34;;;9.51;73.36
6343;BME280;3204;42.698;23.298;2023-03-25T03:03:07;94511.00;;;9.54;73.34
6343;BME280;3204;42.698;23.298;2023-03-25T03:05:40;94506.38;;;9.55;73.41
6343;BME280;3204;42.698;23.298;2023-03-25T03:16:46;94507.03;;;9.52;73.34
6343;BME280;3204;42.698;23.298;2023-03-25T03:19:37;94517.78;;;9.43;73.54
6343;BME280;3204;42.698;23.298;2023-03-25T03:25:09;94524.50;;;9.46;73.88
6343;BME280;3204;42.698;23.298;2023-03-25T03:27:45;94513.31;;;9.39;74.83
6343;BME280;3204;42.698;23.298;2023-03-25T03:30:24;94513.84;;;9.49;73.80
6343;BME280;3204;42.698;23.298;2023-03-25T03:32:53;94512.44;;;9.52;74.23
6343;BME280;3204;42.698;23.298;2023-03-25T03:35:27;94514.44;;;9.38;74.12
6343;BME280;3204;42.698;23.298;2023-03-25T03:38:01;94519.06;;;9.46;74.22
6343;BME280;3204;42.698;23.298;2023-03-25T03:40:29;94524.28;;;9.34;74.28
6343;BME280;3204;42.698;23.298;2023-03-25T03:43:05;94528.94;;;9.42;74.43
6343;BME280;3204;42.698;23.298;2023-03-25T03:45:39;94526.19;;;9.33;74.27
6343;BME280;3204;42.698;23.298;2023-03-25T03:48:19;94523.75;;;9.23;74.69
6343;BME280;3204;42.698;23.298;2023-03-25T03:50:54;94514.22;;;9.26;74.98
6343;BME280;3204;42.698;23.298;2023-03-25T03:53:29;94510.53;;;9.22;74.46
6343;BME280;3204;42.698;23.298;2023-03-25T03:56:10;94509.88;;;9.16;74.61
6343;BME280;3204;42.698;23.298;2023-03-25T03:58:40;94518.47;;;9.18;75.37
6343;BME280;3204;42.698;23.298;2023-03-25T04:01:16;94519.44;;;9.22;74.61
6343;BME280;3204;42.698;23.298;2023-03-25T04:03:54;94530.97;;;9.06;75.15
6343;BME280;3204;42.698;23.298;2023-03-25T04:09:02;94525.22;;;8.99;75.66
6343;BME280;3204;42.698;23.298;2023-03-25T04:11:42;94520.59;;;8.99;76.29
6343;BME280;3204;42.698;23.298;2023-03-25T04:14:08;94520.47;;;9.04;75.31
6343;BME280;3204;42.698;23.298;2023-03-25T04:16:35;94515.00;;;8.96;75.74
6343;BME280;3204;42.698;23.298;2023-03-25T04:19:03;94517.59;;;9.01;75.54
6343;BME280;3204;42.698;23.298;2023-03-25T04:21:30;94514.06;;;9.00;76.66
6343;BME280;3204;42.698;23.298;2023-03-25T04:23:55;94498.09;;;8.90;76.69
6343;BME280;3204;42.698;23.298;2023-03-25T04:26:20;94510.75;;;9.03;76.30
6343;BME280;3204;42.698;23.298;2023-03-25T04:28:46;94516.34;;;9.07;76.05
6343;BME280;3204;42.698;23.298;2023-03-25T04:31:13;94518.91;;;9.12;75.90
6343;BME280;3204;42.698;23.298;2023-03-25T04:33:41;94524.75;;;9.05;75.68
6343;BME280;3204;42.698;23.298;2023-03-25T04:36:06;94522.19;;;9.00;76.27
6343;BME280;3204;42.698;23.298;2023-03-25T04:38:32;94521.56;;;9.03;76.15
6343;BME280;3204;42.698;23.298;2023-03-25T04:40:57;94525.00;;;8.95;75.62
6343;BME280;3204;42.698;23.298;2023-03-25T04:43:24;94522.94;;;8.92;76.63
6343;BME280;3204;42.698;23.298;2023-03-25T04:45:49;94525.78;;;8.87;76.23
6343;BME280;3204;42.698;23.298;2023-03-25T04:48:29;94525.00;;;8.95;75.99
6343;BME280;3204;42.698;23.298;2023-03-25T04:50:58;94523.00;;;9.01;76.17
6343;BME280;3204;42.698;23.298;2023-03-25T04:53:25;94524.22;;;8.95;76.35
6343;BME280;3204;42.698;23.298;2023-03-25T04:55:51;94526.44;;;8.93;76.79
6343;BME280;3204;42.698;23.298;2023-03-25T04:58:18;94522.31;;;8.95;76.71
6343;BME280;3204;42.698;23.298;2023-03-25T05:00:47;94528.09;;;9.02;76.65
6343;BME280;3204;42.698;23.298;2023-03-25T05:03:16;94532.13;;;9.13;75.88
6343;BME280;3204;42.698;23.298;2023-03-25T05:05:48;94528.56;;;9.04;76.31
6343;BME280;3204;42.698;23.298;2023-03-25T05:08:14;94527.84;;;9.12;75.91
6343;BME280;3204;42.698;23.298;2023-03-25T05:10:39;94533.84;;;9.09;76.11
6343;BME280;3204;42.698;23.298;2023-03-25T05:13:07;94533.72;;;9.14;75.57
6343;BME280;3204;42.698;23.298;2023-03-25T05:15:34;94535.13;;;9.12;75.62
6343;BME280;3204;42.698;23.298;2023-03-25T05:18:11;94531.81;;;9.15;75.84
6343;BME280;3204;42.698;23.298;2023-03-25T05:20:43;94534.75;;;9.27;75.79
6343;BME280;3204;42.698;23.298;2023-03-25T05:23:10;94535.91;;;9.34;74.75
6343;BME280;3204;42.698;23.298;2023-03-25T05:25:45;94539.13;;;9.45;74.51
6343;BME280;3204;42.698;23.298;2023-03-25T05:28:12;94528.97;;;9.50;73.73
6343;BME280;3204;42.698;23.298;2023-03-25T05:30:42;94533.31;;;9.60;73.43
6343;BME280;3204;42.698;23.298;2023-03-25T05:33:10;94526.69;;;9.74;73.73
6343;BME280;3204;42.698;23.298;2023-03-25T05:35:37;94531.16;;;9.79;73.03
6343;BME280;3204;42.698;23.298;2023-03-25T05:38:05;94528.50;;;9.96;72.54
6343;BME280;3204;42.698;23.298;2023-03-25T05:40:36;94533.16;;;10.04;71.99
6343;BME280;3204;42.698;23.298;2023-03-25T05:43:02;94531.16;;;10.18;72.29
6343;BME280;3204;42.698;23.298;2023-03-25T05:45:28;94535.94;;;10.38;71.69
6343;BME280;3204;42.698;23.298;2023-03-25T05:47:54;94544.91;;;10.47;71.12
6343;BME280;3204;42.698;23.298;2023-03-25T05:50:21;94542.81;;;10.61;71.19
6343;BME280;3204;42.698;23.298;2023-03-25T05:52:46;94537.09;;;10.71;70.61
6343;BME280;3204;42.698;23.298;2023-03-25T05:55:18;94539.16;;;10.91;70.84
6343;BME280;3204;42.698;23.298;2023-03-25T05:57:44;94541.69;;;11.13;70.01
6343;BME280;3204;42.698;23.298;2023-03-25T06:00:11;94536.13;;;11.55;68.14
6343;BME280;3204;42.698;23.298;2023-03-25T06:02:38;94546.41;;;11.96;66.68
6343;BME280;3204;42.698;23.298;2023-03-25T06:05:08;94545.69;;;12.07;66.01
6343;BME280;3204;42.698;23.298;2023-03-25T06:07:37;94536.53;;;12.20;65.26
6343;BME280;3204;42.698;23.298;2023-03-25T06:10:04;94534.34;;;12.34;64.11
6343;BME280;3204;42.698;23.298;2023-03-25T06:12:30;94531.06;;;12.49;63.95
6343;BME280;3204;42.698;23.298;2023-03-25T06:14:58;94529.81;;;12.67;63.25
6343;BME280;3204;42.698;23.298;2023-03-25T06:17:23;94521.84;;;12.83;62.47
6343;BME280;3204;42.698;23.298;2023-03-25T06:19:50;94532.41;;;13.05;59.85
6343;BME280;3204;42.698;23.298;2023-03-25T06:22:16;94531.66;;;13.16;59.49
6343;BME280;3204;42.698;23.298;2023-03-25T06:24:42;94530.47;;;13.38;59.04
6343;BME280;3204;42.698;23.298;2023-03-25T06:27:12;94524.03;;;13.54;59.60
6343;BME280;3204;42.698;23.298;2023-03-25T06:29:37;94533.63;;;13.72;56.77
6343;BME280;3204;42.698;23.298;2023-03-25T06:32:06;94535.00;;;13.78;57.09
6343;BME280;3204;42.698;23.298;2023-03-25T06:34:32;94538.78;;;13.98;56.14
6343;BME280;3204;42.698;23.298;2023-03-25T06:36:58;94531.50;;;14.14;55.19
6343;BME280;3204;42.698;23.298;2023-03-25T06:39:23;94539.44;;;14.19;56.19
6343;BME280;3204;42.698;23.298;2023-03-25T06:41:49;94533.53;;;14.05;56.84
6343;BME280;3204;42.698;23.298;2023-03-25T06:44:15;94531.50;;;14.14;57.07
6343;BME280;3204;42.698;23.298;2023-03-25T06:46:41;94535.94;;;14.06;57.26
6343;BME280;3204;42.698;23.298;2023-03-25T06:49:06;94535.34;;;13.89;57.22
6343;BME280;3204;42.698;23.298;2023-03-25T06:51:32;94539.91;;;14.09;56.71
6343;BME280;3204;42.698;23.298;2023-03-25T06:53:57;94542.91;;;14.28;55.68
6343;BME280;3204;42.698;23.298;2023-03-25T06:56:23;94545.41;;;14.33;55.51
6343;BME280;3204;42.698;23.298;2023-03-25T06:58:48;94548.34;;;14.28;55.92
6343;BME280;3204;42.698;23.298;2023-03-25T07:01:14;94555.03;;;14.18;55.89
6343;BME280;3204;42.698;23.298;2023-03-25T07:03:39;94546.06;;;14.42;55.30
6343;BME280;3204;42.698;23.298;2023-03-25T07:06:05;94549.38;;;14.47;55.57
6343;BME280;3204;42.698;23.298;2023-03-25T07:08:31;94557.09;;;14.57;55.47
6343;BME280;3204;42.698;23.298;2023-03-25T07:11:04;94545.56;;;14.88;54.18
6343;BME280;3204;42.698;23.298;2023-03-25T07:13:31;94543.84;;;15.23;54.24
6343;BME280;3204;42.698;23.298;2023-03-25T07:15:58;94537.91;;;14.93;54.47
6343;BME280;3204;42.698;23.298;2023-03-25T07:18:23;94533.13;;;14.90;54.29
6343;BME280;3204;42.698;23.298;2023-03-25T07:20:49;94533.34;;;14.97;53.62
6343;BME280;3204;42.698;23.298;2023-03-25T07:23:14;94538.13;;;15.28;53.30
6343;BME280;3204;42.698;23.298;2023-03-25T07:25:40;94544.31;;;15.25;53.11
6343;BME280;3204;42.698;23.298;2023-03-25T07:28:05;94545.47;;;15.67;52.58
6343;BME280;3204;42.698;23.298;2023-03-25T07:30:31;94534.94;;;16.12;51.50
6343;BME280;3204;42.698;23.298;2023-03-25T07:32:57;94543.06;;;16.55;50.30
6343;BME280;3204;42.698;23.298;2023-03-25T07:35:22;94542.50;;;16.65;50.30
6343;BME280;3204;42.698;23.298;2023-03-25T07:37:48;94537.75;;;16.15;50.81
6343;BME280;3204;42.698;23.298;2023-03-25T07:40:14;94524.34;;;15.79;51.60
6343;BME280;3204;42.698;23.298;2023-03-25T07:42:39;94533.25;;;15.92;51.67
6343;BME280;3204;42.698;23.298;2023-03-25T07:45:05;94525.16;;;16.11;50.73
6343;BME280;3204;42.698;23.298;2023-03-25T07:47:31;94536.88;;;16.27;50.05
6343;BME280;3204;42.698;23.298;2023-03-25T07:49:57;94536.50;;;16.59;49.91
6343;BME280;3204;42.698;23.298;2023-03-25T07:52:22;94515.03;;;16.96;49.84
6343;BME280;3204;42.698;23.298;2023-03-25T07:54:47;94520.31;;;17.24;48.13
6343;BME280;3204;42.698;23.298;2023-03-25T07:57:13;94524.28;;;17.64;47.43
6343;BME280;3204;42.698;23.298;2023-03-25T07:59:38;94508.09;;;18.01;46.44
6343;BME280;3204;42.698;23.298;2023-03-25T08:02:03;94510.66;;;18.13;46.54
6343;BME280;3204;42.698;23.298;2023-03-25T08:04:29;94507.97;;;18.16;46.46
6343;BME280;3204;42.698;23.298;2023-03-25T08:06:55;94509.63;;;17.57;47.13
6343;BME280;3204;42.698;23.298;2023-03-25T08:09:21;94499.22;;;17.43;47.93
6343;BME280;3204;42.698;23.298;2023-03-25T08:11:47;94490.97;;;17.85;46.76
6343;BME280;3204;42.698;23.298;2023-03-25T08:14:13;94492.34;;;17.75;46.89
6343;BME280;3204;42.698;23.298;2023-03-25T08:16:38;94494.31;;;17.75;47.66
6343;BME280;3204;42.698;23.298;2023-03-25T08:19:04;94486.13;;;17.78;47.24
6343;BME280;3204;42.698;23.298;2023-03-25T08:21:29;94494.97;;;17.91;47.07
6343;BME280;3204;42.698;23.298;2023-03-25T08:23:56;94483.03;;;17.80;46.61
6343;BME280;3204;42.698;23.298;2023-03-25T08:26:32;94488.56;;;17.83;47.54
6343;BME280;3204;42.698;23.298;2023-03-25T08:28:59;94487.53;;;18.14;46.46
6343;BME280;3204;42.698;23.298;2023-03-25T08:31:29;94494.13;;;18.09;45.59
6343;BME280;3204;42.698;23.298;2023-03-25T08:34:02;94485.28;;;18.19;46.27
6343;BME280;3204;42.698;23.298;2023-03-25T08:36:28;94489.50;;;18.36;45.83
6343;BME280;3204;42.698;23.298;2023-03-25T08:38:54;94484.53;;;18.71;45.01
6343;BME280;3204;42.698;23.298;2023-03-25T08:41:19;94480.84;;;18.89;44.73
6343;BME280;3204;42.698;23.298;2023-03-25T08:43:45;94480.72;;;18.79;45.53
6343;BME280;3204;42.698;23.298;2023-03-25T08:46:10;94472.09;;;18.80;44.38
6343;BME280;3204;42.698;23.298;2023-03-25T08:48:36;94468.91;;;18.75;44.38
6343;BME280;3204;42.698;23.298;2023-03-25T08:51:02;94470.16;;;19.10;43.77
6343;BME280;3204;42.698;23.298;2023-03-25T08:53:28;94467.84;;;19.16;44.18
6343;BME280;3204;42.698;23.298;2023-03-25T08:55:55;94460.56;;;19.27;44.05
6343;BME280;3204;42.698;23.298;2023-03-25T08:58:22;94460.78;;;19.15;43.53
6343;BME280;3204;42.698;23.298;2023-03-25T09:00:49;94458.66;;;19.31;43.36
6343;BME280;3204;42.698;23.298;2023-03-25T09:03:19;94464.19;;;19.34;42.98
6343;BME280;3204;42.698;23.298;2023-03-25T09:05:45;94464.94;;;19.68;43.06
6343;BME280;3204;42.698;23.298;2023-03-25T09:08:10;94457.38;;;19.94;42.17
6343;BME280;3204;42.698;23.298;2023-03-25T09:10:36;94449.97;;;20.05;42.40
6343;BME280;3204;42.698;23.298;2023-03-25T09:13:01;94446.56;;;20.15;42.07
6343;BME280;3204;42.698;23.298;2023-03-25T09:15:27;94445.19;;;20.42;41.51
6343;BME280;3204;42.698;23.298;2023-03-25T09:17:52;94445.16;;;20.39;41.23
6343;BME280;3204;42.698;23.298;2023-03-25T09:20:18;94436.19;;;20.49;40.88
6343;BME280;3204;42.698;23.298;2023-03-25T09:22:43;94441.78;;;20.63;40.31
6343;BME280;3204;42.698;23.298;2023-03-25T09:25:09;94442.50;;;20.53;40.05
6343;BME280;3204;42.698;23.298;2023-03-25T09:27:35;94441.75;;;20.59;40.23
6343;BME280;3204;42.698;23.298;2023-03-25T09:30:01;94437.16;;;20.81;39.90
6343;BME280;3204;42.698;23.298;2023-03-25T09:32:27;94429.03;;;21.02;39.78
6343;BME280;3204;42.698;23.298;2023-03-25T09:34:53;94423.09;;;20.93;40.84
6343;BME280;3204;42.698;23.298;2023-03-25T09:37:18;94417.88;;;20.84;41.68
6343;BME280;3204;42.698;23.298;2023-03-25T09:39:43;94430.09;;;20.83;41.33
6343;BME280;3204;42.698;23.298;2023-03-25T09:47:28;94419.47;;;21.85;40.29
6343;BME280;3204;42.698;23.298;2023-03-25T09:49:59;94419.44;;;22.93;37.84
6343;BME280;3204;42.698;23.298;2023-03-25T09:52:34;94410.78;;;22.63;37.55
6343;BME280;3204;42.698;23.298;2023-03-25T09:55:14;94412.75;;;22.59;37.59
6343;BME280;3204;42.698;23.298;2023-03-25T09:57:46;94421.47;;;22.05;37.32
6343;BME280;3204;42.698;23.298;2023-03-25T10:00:18;94405.25;;;22.21;36.62
6343;BME280;3204;42.698;23.298;2023-03-25T10:03:02;94406.88;;;22.08;36.11
6343;BME280;3204;42.698;23.298;2023-03-25T10:05:56;94402.50;;;21.79;36.68
6343;BME280;3204;42.698;23.298;2023-03-25T10:08:43;94399.72;;;21.93;36.66
6343;BME280;3204;42.698;23.298;2023-03-25T10:13:58;94394.22;;;22.00;35.87
6343;BME280;3204;42.698;23.298;2023-03-25T10:21:59;94375.28;;;22.23;34.36
6343;BME280;3204;42.698;23.298;2023-03-25T10:24:43;94370.56;;;22.13;34.12
6343;BME280;3204;42.698;23.298;2023-03-25T10:29:51;94356.31;;;22.22;34.25
6343;BME280;3204;42.698;23.298;2023-03-25T10:32:30;94359.44;;;22.38;34.29
6343;BME280;3204;42.698;23.298;2023-03-25T10:34:58;94351.97;;;22.31;34.32
6343;BME280;3204;42.698;23.298;2023-03-25T10:37:34;94352.38;;;22.26;34.44
6343;BME280;3204;42.698;23.298;2023-03-25T10:40:16;94347.59;;;22.65;34.35
6343;BME280;3204;42.698;23.298;2023-03-25T10:43:11;94351.34;;;23.20;33.83
6343;BME280;3204;42.698;23.298;2023-03-25T10:45:40;94338.50;;;23.51;33.02
6343;BME280;3204;42.698;23.298;2023-03-25T10:48:13;94342.22;;;23.92;32.78
6343;BME280;3204;42.698;23.298;2023-03-25T10:50:41;94341.72;;;24.07;32.39
6343;BME280;3204;42.698;23.298;2023-03-25T10:53:15;94343.69;;;24.07;32.47
6343;BME280;3204;42.698;23.298;2023-03-25T10:55:43;94325.81;;;24.11;32.15
6343;BME280;3204;42.698;23.298;2023-03-25T10:58:15;94318.38;;;24.01;32.47
6343;BME280;3204;42.698;23.298;2023-03-25T11:00:42;94319.28;;;23.84;32.43
6343;BME280;3204;42.698;23.298;2023-03-25T11:03:16;94324.09;;;23.73;32.76
6343;BME280;3204;42.698;23.298;2023-03-25T11:05:45;94313.13;;;23.59;33.56
6343;BME280;3204;42.698;23.298;2023-03-25T11:08:12;94314.63;;;23.71;33.67
6343;BME280;3204;42.698;23.298;2023-03-25T11:10:39;94302.91;;;23.53;33.64
6343;BME280;3204;42.698;23.298;2023-03-25T11:13:11;94308.63;;;23.18;34.51
6343;BME280;3204;42.698;23.298;2023-03-25T11:15:38;94290.56;;;22.99;34.48
6343;BME280;3204;42.698;23.298;2023-03-25T11:18:29;94295.41;;;22.71;34.80
6343;BME280;3204;42.698;23.298;2023-03-25T11:21:07;94286.75;;;22.69;35.15
6343;BME280;3204;42.698;23.298;2023-03-25T11:23:35;94289.09;;;22.74;34.91
6343;BME280;3204;42.698;23.298;2023-03-25T11:26:06;94288.63;;;22.89;34.01
6343;BME280;3204;42.698;23.298;2023-03-25T11:28:39;94277.13;;;22.98;33.98
6343;BME280;3204;42.698;23.298;2023-03-25T11:31:11;94282.56;;;23.12;33.55
6343;BME280;3204;42.698;23.298;2023-03-25T11:33:38;94278.97;;;23.25;33.09
6343;BME280;3204;42.698;23.298;2023-03-25T11:36:34;94274.53;;;23.38;33.02
6343;BME280;3204;42.698;23.298;2023-03-25T11:39:13;94271.06;;;23.27;32.63
6343;BME280;3204;42.698;23.298;2023-03-25T11:41:40;94264.06;;;23.02;32.91
6343;BME280;3204;42.698;23.298;2023-03-25T11:44:06;94268.88;;;22.91;33.30
6343;BME280;3204;42.698;23.298;2023-03-25T11:46:43;94251.44;;;22.94;33.59
6343;BME280;3204;42.698;23.298;2023-03-25T11:49:15;94245.19;;;22.83;33.64
6343;BME280;3204;42.698;23.298;2023-03-25T11:51:43;94239.13;;;23.05;33.34
6343;BME280;3204;42.698;23.298;2023-03-25T11:54:12;94245.38;;;23.16;33.10
6343;BME280;3204;42.698;23.298;2023-03-25T11:56:40;94238.00;;;23.57;33.20
6343;BME280;3204;42.698;23.298;2023-03-25T11:59:15;94237.66;;;23.99;32.59
6343;BME280;3204;42.698;23.298;2023-03-25T12:01:47;94238.69;;;24.49;31.99
6343;BME280;3204;42.698;23.298;2023-03-25T12:04:17;94226.88;;;24.45;32.04
6343;BME280;3204;42.698;23.298;2023-03-25T12:07:07;94239.72;;;24.29;31.71
6343;BME280;3204;42.698;23.298;2023-03-25T12:09:34;94247.63;;;23.93;31.58
6343;BME280;3204;42.698;23.298;2023-03-25T12:15:34;94245.25;;;22.72;33.23
6343;BME280;3204;42.698;23.298;2023-03-25T12:20:50;94238.59;;;22.56;33.48
6343;BME280;3204;42.698;23.298;2023-03-25T12:26:12;94230.84;;;22.05;34.06
6343;BME280;3204;42.698;23.298;2023-03-25T12:37:00;94237.91;;;22.20;33.75
6343;BME280;3204;42.698;23.298;2023-03-25T12:42:22;94235.56;;;22.15;33.93
6343;BME280;3204;42.698;23.298;2023-03-25T12:58:56;94226.50;;;22.15;33.71
6343;BME280;3204;42.698;23.298;2023-03-25T13:07:11;94217.88;;;21.53;34.53
6343;BME280;3204;42.698;23.298;2023-03-25T13:09:47;94232.09;;;21.41;34.80
6343;BME280;3204;42.698;23.298;2023-03-25T13:12:41;94221.03;;;21.24;35.17
6343;BME280;3204;42.698;23.298;2023-03-25T13:18:17;94231.66;;;21.29;35.28
6343;BME280;3204;42.698;23.298;2023-03-25T13:21:10;94226.94;;;21.15;35.42
6343;BME280;3204;42.698;23.298;2023-03-25T13:23:41;94229.72;;;21.08;35.94
6343;BME280;3204;42.698;23.298;2023-03-25T13:26:10;94232.06;;;21.13;35.57
6343;BME280;3204;42.698;23.298;2023-03-25T13:28:48;94226.94;;;21.15;35.53
6343;BME280;3204;42.698;23.298;2023-03-25T13:31:18;94225.34;;;21.00;35.62
6343;BME280;3204;42.698;23.298;2023-03-25T13:33:48;94239.13;;;20.93;35.97
6343;BME280;3204;42.698;23.298;2023-03-25T13:36:28;94241.09;;;20.96;35.80
6343;BME280;3204;42.698;23.298;2023-03-25T13:38:58;94242.59;;;20.80;36.25
6343;BME280;3204;42.698;23.298;2023-03-25T13:41:38;94246.09;;;20.59;36.89
6343;BME280;3204;42.698;23.298;2023-03-25T13:44:21;94259.81;;;20.45;38.19
6343;BME280;3204;42.698;23.298;2023-03-25T13:47:04;94256.53;;;20.19;41.11
6343;BME280;3204;42.698;23.298;2023-03-25T13:49:53;94257.19;;;19.98;41.01
6343;BME280;3204;42.698;23.298;2023-03-25T13:52:20;94276.06;;;19.96;40.97
6343;BME280;3204;42.698;23.298;2023-03-25T13:54:54;94284.63;;;19.84;42.46
6343;BME280;3204;42.698;23.298;2023-03-25T14:00:32;94289.41;;;19.44;44.41
6343;BME280;3204;42.698;23.298;2023-03-25T14:03:23;94290.03;;;19.23;46.40
6343;BME280;3204;42.698;23.298;2023-03-25T14:06:22;94284.09;;;19.21;46.91
6343;BME280;3204;42.698;23.298;2023-03-25T14:11:35;94284.97;;;18.92;46.89
6343;BME280;3204;42.698;23.298;2023-03-25T14:14:09;94275.78;;;18.78;47.53
6343;BME280;3204;42.698;23.298;2023-03-25T14:16:40;94278.16;;;18.79;48.70
6343;BME280;3204;42.698;23.298;2023-03-25T14:19:18;94286.34;;;18.72;49.64
6343;BME280;3204;42.698;23.298;2023-03-25T14:21:49;94277.09;;;18.54;51.55
6343;BME280;3204;42.698;23.298;2023-03-25T14:24:30;94282.13;;;18.49;51.35
6343;BME280;3204;42.698;23.298;2023-03-25T14:27:03;94277.13;;;18.58;51.50
6343;BME280;3204;42.698;23.298;2023-03-25T14:34:34;94266.06;;;18.21;54.32
6343;BME280;3204;42.698;23.298;2023-03-25T14:44:32;94207.41;;;17.44;57.49
6343;BME280;3204;42.698;23.298;2023-03-25T14:47:25;94207.41;;;17.44;58.26
6343;BME280;3204;42.698;23.298;2023-03-25T14:52:56;94195.78;;;17.54;57.07
6343;BME280;3204;42.698;23.298;2023-03-25T14:57:59;94195.22;;;17.42;58.33
6343;BME280;3204;42.698;23.298;2023-03-25T15:00:30;94181.06;;;17.40;58.55
6343;BME280;3204;42.698;23.298;2023-03-25T15:03:01;94178.41;;;17.43;58.26
6343;BME280;3204;42.698;23.298;2023-03-25T15:05:29;94182.75;;;17.48;58.11
6343;BME280;3204;42.698;23.298;2023-03-25T15:10:34;94180.94;;;17.59;59.05
6343;BME280;3204;42.698;23.298;2023-03-25T15:13:02;94178.22;;;17.59;59.09
6343;BME280;3204;42.698;23.298;2023-03-25T15:18:11;94176.75;;;17.65;57.88
6343;BME280;3204;42.698;23.298;2023-03-25T15:20:37;94176.69;;;17.61;58.19
6343;BME280;3204;42.698;23.298;2023-03-25T15:25:49;94167.63;;;17.57;57.27
6343;BME280;3204;42.698;23.298;2023-03-25T15:34:17;94164.97;;;17.64;57.74
6343;BME280;3204;42.698;23.298;2023-03-25T15:37:03;94154.69;;;17.58;57.28
6343;BME280;3204;42.698;23.298;2023-03-25T15:40:21;94162.03;;;17.50;56.37